MAPA DE AEROPUERTO

INFORMACIÓN METAR y TAF

METAR FOR GCLA
ADDS - METARS form results

(1717 UTC 23 October 2021)
Data provider http://aviationweather.gov/metar/data/
 
METAR text: GCLA 231700Z 32009KT 290V350 9999 BKN040 20/18 Q1019 RERA
Conditions at: GCLA (LA PALMA AIRPORT, ES) observed 1700 UTC 23 October 2021
Temperature: 20.0°C (68°F)
Dewpoint: 18.0°C (64°F) [RH = 88%]
Pressure (altimeter): 30.09 inches Hg (1019.0 mb)
Winds: from the NW (320 degrees) at 10 MPH (9 knots; 4.6 m/s)
Visibility: 6 or more miles (10+ km)
Ceiling: 4000 feet AGL
Clouds: broken clouds at 4000 feet AGL
Weather: no significant weather observed at this time

METAR text: GCLA 231630Z 36007KT 300V050 9999 -RA BKN040 20/18 Q1020
Conditions at: GCLA (LA PALMA AIRPORT, ES) observed 1630 UTC 23 October 2021
Temperature: 20.0°C (68°F)
Dewpoint: 18.0°C (64°F) [RH = 88%]
Pressure (altimeter): 30.12 inches Hg (1020.0 mb)
Winds: from the N (360 degrees) at 8 MPH (7 knots; 3.6 m/s)
Visibility: 6 or more miles (10+ km)
Ceiling: 4000 feet AGL
Clouds: broken clouds at 4000 feet AGL
Weather: -RA  (light rain)

Forecast for: GCLA (LA PALMA AIRPORT, ES)
Text: TAF GCLA 231400Z 2315/2415 03010KT 9999 BKN030 TX25/2414Z TN22/2406Z
Forecast period: 1500 to 1900 UTC 23 October 2021
Forecast type: FROM: standard forecast or significant change
Winds: from the NNE (30 degrees) at 12 MPH (10 knots; 5.1 m/s)
Visibility: 6 or more miles (10+ km)
Ceiling: 3000 feet AGL
Clouds: broken clouds at 3000 feet AGL
Weather: no significant weather forecast for this period
Text: BECMG 2319/2321 33009KT
Forecast period: 1900 UTC 23 October 2021 to 1500 UTC 24 October 2021
Forecast type: BECOMING: Conditions expected to become as follows by 2100 UTC 23 October 2021
Winds: from the NNW (330 degrees) at 10 MPH (9 knots; 4.6 m/s)
Visibility: 6 or more miles (10+ km)
Ceiling: 3000 feet AGL
Clouds: broken clouds at 3000 feet AGL
Weather: no significant weather forecast for this period